NKS107 KLAS-KLAX
Flight info
| Callsign | NKS107 |
|---|---|
| Flight time | N/A |
| Altitude | 24000 |
| Route | RADYR2 BLAQQ SHTNR ANJLL4 |
| Aircraft | A320/M-SDE3FGHIRWY/LB1 |
Departure
| Time | 2026-05-05 05:33 |
|---|---|
| Airport | Harry Reid International Airport (KLAS) |
Arrival
| Time | N/A |
|---|---|
| Airport | Los Angeles International Airport (KLAX) |
| Time | Latitude | Longitude | Altitude | Speed | Heading |
|---|---|---|---|---|---|
| 2026-05-05 05:18 | 36.08254 | -115.15356 | 2127 ft | 0 kts | 65° |
| 2026-05-05 05:21 | 36.08254 | -115.15355 | 2127 ft | 0 kts | 65° |
| 2026-05-05 05:21 | 36.08250 | -115.15366 | 2128 ft | 2 kts | 65° |
| 2026-05-05 05:21 | 36.08243 | -115.15382 | 2129 ft | 2 kts | 65° |
| 2026-05-05 05:21 | 36.08237 | -115.15399 | 2129 ft | 2 kts | 66° |
| 2026-05-05 05:22 | 36.08235 | -115.15417 | 2130 ft | 2 kts | 98° |
| 2026-05-05 05:22 | 36.08240 | -115.15435 | 2130 ft | 2 kts | 124° |
| 2026-05-05 05:22 | 36.08250 | -115.15448 | 2130 ft | 1 kts | 148° |
| 2026-05-05 05:22 | 36.08256 | -115.15452 | 2130 ft | 1 kts | 159° |
| 2026-05-05 05:23 | 36.08259 | -115.15453 | 2130 ft | 0 kts | 156° |
| 2026-05-05 05:24 | 36.08248 | -115.15447 | 2130 ft | 3 kts | 156° |
| 2026-05-05 05:24 | 36.08210 | -115.15427 | 2130 ft | 7 kts | 165° |
| 2026-05-05 05:25 | 36.08144 | -115.15436 | 2131 ft | 10 kts | 191° |
| 2026-05-05 05:25 | 36.08073 | -115.15443 | 2132 ft | 13 kts | 169° |
| 2026-05-05 05:25 | 36.07988 | -115.15398 | 2133 ft | 12 kts | 155° |
| 2026-05-05 05:25 | 36.07908 | -115.15350 | 2133 ft | 13 kts | 147° |
| 2026-05-05 05:26 | 36.07877 | -115.15245 | 2130 ft | 14 kts | 90° |
| 2026-05-05 05:26 | 36.07877 | -115.15112 | 2126 ft | 16 kts | 91° |
| 2026-05-05 05:26 | 36.07868 | -115.14968 | 2121 ft | 17 kts | 95° |
| 2026-05-05 05:26 | 36.07858 | -115.14825 | 2115 ft | 14 kts | 94° |
| 2026-05-05 05:27 | 36.07850 | -115.14695 | 2112 ft | 15 kts | 95° |
| 2026-05-05 05:27 | 36.07841 | -115.14555 | 2106 ft | 17 kts | 95° |
| 2026-05-05 05:27 | 36.07827 | -115.14233 | 2096 ft | 16 kts | 90° |
| 2026-05-05 05:28 | 36.07826 | -115.14096 | 2092 ft | 16 kts | 90° |
| 2026-05-05 05:28 | 36.07827 | -115.13945 | 2087 ft | 18 kts | 90° |
| 2026-05-05 05:28 | 36.07827 | -115.13785 | 2083 ft | 19 kts | 90° |
| 2026-05-05 05:28 | 36.07827 | -115.13627 | 2078 ft | 12 kts | 89° |
| 2026-05-05 05:29 | 36.07827 | -115.13515 | 2075 ft | 13 kts | 91° |
| 2026-05-05 05:29 | 36.07827 | -115.13384 | 2071 ft | 18 kts | 90° |
| 2026-05-05 05:29 | 36.07827 | -115.13213 | 2068 ft | 14 kts | 90° |
| 2026-05-05 05:29 | 36.07827 | -115.13078 | 2065 ft | 16 kts | 90° |
| 2026-05-05 05:30 | 36.07828 | -115.12927 | 2062 ft | 18 kts | 90° |
| 2026-05-05 05:30 | 36.07828 | -115.12767 | 2058 ft | 16 kts | 90° |
| 2026-05-05 05:30 | 36.07828 | -115.12631 | 2057 ft | 15 kts | 90° |
| 2026-05-05 05:30 | 36.07827 | -115.12500 | 2056 ft | 15 kts | 90° |
| 2026-05-05 05:31 | 36.07828 | -115.12367 | 2053 ft | 15 kts | 90° |
| 2026-05-05 05:31 | 36.07808 | -115.12242 | 2052 ft | 14 kts | 126° |
| 2026-05-05 05:31 | 36.07746 | -115.12149 | 2052 ft | 13 kts | 136° |
| 2026-05-05 05:31 | 36.07666 | -115.12127 | 2052 ft | 11 kts | 185° |
| 2026-05-05 05:32 | 36.07644 | -115.12196 | 2052 ft | 12 kts | 270° |
| 2026-05-05 05:32 | 36.07643 | -115.12586 | 2057 ft | 77 kts | 270° |
| 2026-05-05 05:32 | 36.07642 | -115.13496 | 2077 ft | 133 kts | 270° |
| 2026-05-05 05:32 | 36.07643 | -115.14792 | 2305 ft | 159 kts | 268° |
| 2026-05-05 05:33 | 36.07689 | -115.16158 | 2850 ft | 162 kts | 269° |
| 2026-05-05 05:33 | 36.07762 | -115.17535 | 3470 ft | 164 kts | 270° |
| 2026-05-05 05:33 | 36.07843 | -115.18955 | 4041 ft | 171 kts | 269° |
| 2026-05-05 05:33 | 36.07769 | -115.20466 | 4418 ft | 182 kts | 257° |
| 2026-05-05 05:34 | 36.07515 | -115.22079 | 4669 ft | 202 kts | 255° |
| 2026-05-05 05:34 | 36.07216 | -115.23851 | 5044 ft | 219 kts | 252° |
| 2026-05-05 05:34 | 36.06538 | -115.25583 | 5427 ft | 232 kts | 226° |
| 2026-05-05 05:34 | 36.05217 | -115.26749 | 5874 ft | 246 kts | 202° |
| 2026-05-05 05:35 | 36.03567 | -115.27490 | 6394 ft | 259 kts | 199° |
| 2026-05-05 05:35 | 36.01856 | -115.28246 | 7136 ft | 263 kts | 200° |
| 2026-05-05 05:35 | 36.00114 | -115.29006 | 7697 ft | 266 kts | 198° |
| 2026-05-05 05:35 | 35.98327 | -115.29628 | 8022 ft | 268 kts | 193° |
| 2026-05-05 05:36 | 35.96493 | -115.30100 | 8695 ft | 272 kts | 192° |
| 2026-05-05 05:36 | 35.94647 | -115.30556 | 9604 ft | 270 kts | 191° |
| 2026-05-05 05:36 | 35.92822 | -115.31004 | 10358 ft | 273 kts | 191° |
| 2026-05-05 05:36 | 35.90914 | -115.31469 | 10778 ft | 288 kts | 192° |
| 2026-05-05 05:37 | 35.88871 | -115.31971 | 11064 ft | 306 kts | 192° |
| 2026-05-05 05:37 | 35.86740 | -115.32494 | 11583 ft | 317 kts | 192° |
| 2026-05-05 05:37 | 35.84584 | -115.33021 | 12271 ft | 320 kts | 192° |
| 2026-05-05 05:37 | 35.82391 | -115.33556 | 12941 ft | 324 kts | 193° |
| 2026-05-05 05:38 | 35.80159 | -115.34103 | 13572 ft | 328 kts | 193° |
| 2026-05-05 05:38 | 35.77895 | -115.34660 | 14201 ft | 332 kts | 193° |
| 2026-05-05 05:38 | 35.75637 | -115.35215 | 14822 ft | 335 kts | 193° |
| 2026-05-05 05:38 | 35.73363 | -115.35770 | 15493 ft | 335 kts | 193° |
| 2026-05-05 05:39 | 35.71061 | -115.36334 | 16180 ft | 335 kts | 193° |
| 2026-05-05 05:39 | 35.68775 | -115.36893 | 16804 ft | 337 kts | 193° |
| 2026-05-05 05:39 | 35.66497 | -115.37449 | 17406 ft | 338 kts | 193° |
| 2026-05-05 05:39 | 35.64194 | -115.38010 | 18019 ft | 339 kts | 194° |
| 2026-05-05 05:40 | 35.61849 | -115.38454 | 18594 ft | 342 kts | 189° |
| 2026-05-05 05:40 | 35.59468 | -115.38631 | 19149 ft | 346 kts | 184° |
| 2026-05-05 05:40 | 35.57028 | -115.38547 | 19639 ft | 351 kts | 180° |
| 2026-05-05 05:40 | 35.54596 | -115.38377 | 20110 ft | 355 kts | 180° |
| 2026-05-05 05:41 | 35.52101 | -115.38190 | 20638 ft | 357 kts | 180° |
| 2026-05-05 05:41 | 35.49619 | -115.38007 | 21154 ft | 358 kts | 180° |
| 2026-05-05 05:41 | 35.47152 | -115.37840 | 21658 ft | 359 kts | 183° |
| 2026-05-05 05:41 | 35.44659 | -115.38081 | 22098 ft | 358 kts | 194° |
| 2026-05-05 05:42 | 35.42271 | -115.38917 | 22521 ft | 358 kts | 204° |
| 2026-05-05 05:42 | 35.40026 | -115.40230 | 23022 ft | 358 kts | 209° |
| 2026-05-05 05:42 | 35.37816 | -115.41637 | 23478 ft | 359 kts | 209° |
| 2026-05-05 05:42 | 35.35622 | -115.43046 | 23830 ft | 361 kts | 209° |
| 2026-05-05 05:43 | 35.33409 | -115.44464 | 23905 ft | 359 kts | 209° |
| 2026-05-05 05:43 | 35.31204 | -115.45874 | 23910 ft | 357 kts | 210° |
| 2026-05-05 05:43 | 35.28996 | -115.47285 | 23915 ft | 357 kts | 209° |
| 2026-05-05 05:43 | 35.26786 | -115.48698 | 23919 ft | 357 kts | 209° |
| 2026-05-05 05:44 | 35.24603 | -115.50092 | 23919 ft | 356 kts | 209° |
| 2026-05-05 05:44 | 35.22381 | -115.51505 | 23918 ft | 355 kts | 209° |
| 2026-05-05 05:44 | 35.20176 | -115.52907 | 23919 ft | 356 kts | 209° |
| 2026-05-05 05:44 | 35.17981 | -115.54304 | 23912 ft | 357 kts | 210° |
| 2026-05-05 05:45 | 35.15781 | -115.55700 | 23910 ft | 356 kts | 210° |
| 2026-05-05 05:45 | 35.13666 | -115.57259 | 23904 ft | 355 kts | 215° |
| 2026-05-05 05:45 | 35.11698 | -115.59080 | 23904 ft | 354 kts | 221° |
| 2026-05-05 05:45 | 35.09908 | -115.61118 | 23908 ft | 355 kts | 226° |
| 2026-05-05 05:46 | 35.08186 | -115.63294 | 23903 ft | 355 kts | 226° |
| 2026-05-05 05:46 | 35.06487 | -115.65462 | 23901 ft | 355 kts | 226° |
| 2026-05-05 05:46 | 35.04745 | -115.67687 | 23903 ft | 357 kts | 226° |
| 2026-05-05 05:46 | 35.03022 | -115.69891 | 23901 ft | 357 kts | 226° |
| 2026-05-05 05:47 | 35.01306 | -115.72079 | 23896 ft | 358 kts | 225° |
| 2026-05-05 05:47 | 34.99596 | -115.74261 | 23898 ft | 358 kts | 226° |
| 2026-05-05 05:47 | 34.97944 | -115.76368 | 23892 ft | 358 kts | 226° |
| 2026-05-05 05:47 | 34.96208 | -115.78577 | 23900 ft | 357 kts | 226° |
| 2026-05-05 05:48 | 34.94488 | -115.80769 | 23916 ft | 357 kts | 226° |
| 2026-05-05 05:48 | 34.92766 | -115.82961 | 23924 ft | 356 kts | 226° |
| 2026-05-05 05:48 | 34.91061 | -115.85126 | 23924 ft | 355 kts | 226° |
| 2026-05-05 05:48 | 34.90056 | -115.86405 | 23923 ft | 355 kts | 226° |
| 2026-05-05 05:49 | 34.88321 | -115.88608 | 23922 ft | 355 kts | 226° |
| 2026-05-05 05:49 | 34.86606 | -115.90789 | 23919 ft | 354 kts | 225° |
| 2026-05-05 05:49 | 34.84897 | -115.92955 | 23923 ft | 355 kts | 226° |
| 2026-05-05 05:49 | 34.83198 | -115.95111 | 23923 ft | 356 kts | 225° |
| 2026-05-05 05:50 | 34.81479 | -115.97286 | 23919 ft | 356 kts | 226° |
| 2026-05-05 05:50 | 34.79752 | -115.99470 | 23921 ft | 355 kts | 226° |
| 2026-05-05 05:50 | 34.78057 | -116.01614 | 23915 ft | 355 kts | 226° |
| 2026-05-05 05:50 | 34.76335 | -116.03801 | 23916 ft | 355 kts | 226° |
| 2026-05-05 05:51 | 34.74624 | -116.05984 | 23917 ft | 355 kts | 226° |
| 2026-05-05 05:51 | 34.72921 | -116.08157 | 23918 ft | 356 kts | 226° |
| 2026-05-05 05:51 | 34.71215 | -116.10332 | 23917 ft | 357 kts | 226° |
| 2026-05-05 05:51 | 34.69503 | -116.12513 | 23919 ft | 356 kts | 226° |
| 2026-05-05 05:52 | 34.67806 | -116.14671 | 23922 ft | 356 kts | 226° |
| 2026-05-05 05:52 | 34.67255 | -116.15372 | 23927 ft | 357 kts | 226° |
| 2026-05-05 05:53 | 34.65635 | -116.17432 | 23929 ft | 357 kts | 226° |
| 2026-05-05 05:53 | 34.63934 | -116.19591 | 23929 ft | 358 kts | 226° |
| 2026-05-05 05:53 | 34.62203 | -116.21792 | 23936 ft | 357 kts | 226° |
| 2026-05-05 05:54 | 34.60484 | -116.23969 | 23935 ft | 357 kts | 226° |
| 2026-05-05 05:54 | 34.58770 | -116.26144 | 23933 ft | 356 kts | 226° |
| 2026-05-05 05:54 | 34.57065 | -116.28305 | 23938 ft | 357 kts | 226° |
| 2026-05-05 05:54 | 34.55345 | -116.30481 | 23940 ft | 358 kts | 226° |
| 2026-05-05 05:55 | 34.53635 | -116.32645 | 23938 ft | 358 kts | 226° |
| 2026-05-05 05:55 | 34.51916 | -116.34819 | 23937 ft | 356 kts | 226° |
| 2026-05-05 05:55 | 34.51025 | -116.35944 | 23936 ft | 357 kts | 226° |
| 2026-05-05 05:55 | 34.50055 | -116.37169 | 23935 ft | 356 kts | 226° |
| 2026-05-05 05:56 | 34.50014 | -116.37221 | 23935 ft | 356 kts | 226° |
| 2026-05-05 05:56 | 34.48306 | -116.39378 | 23936 ft | 356 kts | 226° |
| 2026-05-05 05:56 | 34.46599 | -116.41531 | 23936 ft | 356 kts | 226° |
| 2026-05-05 05:56 | 34.44879 | -116.43698 | 23939 ft | 356 kts | 226° |
| 2026-05-05 05:57 | 34.43200 | -116.45927 | 23948 ft | 357 kts | 230° |